createdAt,value
2018-06-04T00:02:37.688Z,94730.98
2018-06-04T00:05:43.239Z,94728.88
2018-06-04T00:08:48.025Z,94726.77
2018-06-04T00:11:52.354Z,94733.87
2018-06-04T00:14:56.794Z,94724.17
2018-06-04T00:18:01.061Z,94721.69
2018-06-04T00:21:05.336Z,94711.16
2018-06-04T00:24:09.696Z,94712.30
2018-06-04T00:27:13.978Z,94709.67
2018-06-04T00:30:18.430Z,94701.41
2018-06-04T00:33:22.741Z,94704.56
2018-06-04T00:36:27.233Z,94699.00
2018-06-04T00:39:31.485Z,94697.37
2018-06-04T00:42:35.623Z,94696.03
2018-06-04T00:45:39.983Z,94699.27
2018-06-04T00:48:44.413Z,94694.39
2018-06-04T00:51:48.853Z,94691.30
2018-06-04T00:54:53.108Z,94696.16
2018-06-04T00:57:57.633Z,94694.61
2018-06-04T01:01:02.409Z,94688.64
2018-06-04T01:04:06.697Z,94683.36
2018-06-04T01:07:11.671Z,94686.99
2018-06-04T01:10:16.038Z,94681.91
2018-06-04T01:13:20.299Z,94684.20
2018-06-04T01:16:24.570Z,94674.63
2018-06-04T01:19:28.841Z,94666.00
2018-06-04T01:22:33.337Z,94664.74
2018-06-04T01:25:37.614Z,94662.59
2018-06-04T01:28:41.873Z,94659.33
2018-06-04T01:31:46.128Z,94654.48
2018-06-04T01:34:51.005Z,94647.39
2018-06-04T01:37:55.273Z,94642.82
2018-06-04T01:40:59.599Z,94640.15
2018-06-04T01:44:04.773Z,94641.34
2018-06-04T01:47:09.388Z,94636.45
2018-06-04T01:50:13.650Z,94638.85
2018-06-04T01:53:17.906Z,94634.39
2018-06-04T01:56:22.628Z,94637.48
2018-06-04T01:59:27.338Z,94635.57
2018-06-04T02:02:31.640Z,94634.45
2018-06-04T02:05:35.894Z,94634.08
2018-06-04T02:08:40.169Z,94632.50
2018-06-04T02:11:52.594Z,94626.94
2018-06-04T02:14:56.843Z,94620.41
2018-06-04T02:18:01.118Z,94614.81
2018-06-04T02:21:05.389Z,94614.89
2018-06-04T02:24:09.655Z,94618.89
2018-06-04T02:27:13.905Z,94619.63
2018-06-04T02:30:18.162Z,94623.24
2018-06-04T02:33:22.441Z,94628.08
2018-06-04T02:36:26.711Z,94626.95
2018-06-04T02:39:30.990Z,94625.23
2018-06-04T02:42:35.259Z,94624.36
2018-06-04T02:45:39.555Z,94628.30
2018-06-04T02:48:43.852Z,94625.50
2018-06-04T02:51:48.130Z,94628.67
2018-06-04T02:54:52.394Z,94624.25
2018-06-04T02:57:56.681Z,94618.44
2018-06-04T03:01:00.993Z,94618.36
2018-06-04T03:04:05.669Z,94617.12
2018-06-04T03:07:09.755Z,94616.57
2018-06-04T03:10:14.092Z,94627.58
2018-06-04T03:13:18.381Z,94632.36
2018-06-04T03:16:23.346Z,94626.81
2018-06-04T03:19:27.909Z,94624.66
2018-06-04T03:22:32.239Z,94623.83
2018-06-04T03:25:36.537Z,94623.06
2018-06-04T03:28:40.961Z,94624.34
2018-06-04T03:31:45.404Z,94616.27
2018-06-04T03:34:49.719Z,94617.86
2018-06-04T03:37:54.048Z,94619.97
2018-06-04T03:40:58.393Z,94618.47
2018-06-04T03:44:02.686Z,94620.02
2018-06-04T03:47:07.324Z,94616.79
2018-06-04T03:50:11.597Z,94617.12
2018-06-04T03:53:15.901Z,94617.48
2018-06-04T03:56:20.900Z,94624.73
2018-06-04T03:59:25.530Z,94625.47
2018-06-04T04:02:29.830Z,94628.07
2018-06-04T04:05:34.797Z,94627.59
2018-06-04T04:08:39.327Z,94624.81
2018-06-04T04:11:43.607Z,94621.52
2018-06-04T04:14:48.397Z,94623.78
2018-06-04T04:17:52.682Z,94614.89
2018-06-04T04:20:56.954Z,94615.27
2018-06-04T04:24:02.070Z,94621.88
2018-06-04T04:27:06.706Z,94626.27
2018-06-04T04:30:11.267Z,94617.91
2018-06-04T04:33:15.603Z,94615.58
2018-06-04T04:36:19.958Z,94616.83
2018-06-04T04:39:24.306Z,94614.23
2018-06-04T04:42:28.653Z,94612.15
2018-06-04T04:45:35.026Z,94603.86
2018-06-04T04:48:39.398Z,94618.80
2018-06-04T04:51:43.678Z,94620.45
2018-06-04T04:54:48.273Z,94630.94
2018-06-04T04:57:53.217Z,94627.17
2018-06-04T05:00:57.726Z,94630.02
2018-06-04T05:04:01.991Z,94626.69
2018-06-04T05:07:06.938Z,94620.47
2018-06-04T05:10:11.482Z,94622.52
2018-06-04T05:13:15.789Z,94624.48
2018-06-04T05:16:20.053Z,94623.80
2018-06-04T05:19:24.373Z,94626.77
2018-06-04T05:22:28.775Z,94628.75
2018-06-04T05:25:33.140Z,94628.98
2018-06-04T05:28:37.454Z,94632.11
2018-06-04T05:31:41.935Z,94631.38
2018-06-04T05:34:46.223Z,94642.77
2018-06-04T05:37:50.627Z,94637.97
2018-06-04T05:40:55.848Z,94639.59
2018-06-04T05:44:00.156Z,94634.59
2018-06-04T05:47:04.479Z,94634.45
2018-06-04T05:50:08.893Z,94627.45
2018-06-04T05:53:13.194Z,94634.00
2018-06-04T05:56:17.792Z,94623.84
2018-06-04T05:59:22.087Z,94630.17
2018-06-04T06:02:26.476Z,94625.83
2018-06-04T06:05:30.822Z,94623.47
2018-06-04T06:08:35.144Z,94624.36
2018-06-04T06:11:39.623Z,94623.05
2018-06-04T06:14:44.275Z,94610.09
2018-06-04T06:17:49.406Z,94604.84
2018-06-04T06:20:54.017Z,94606.41
2018-06-04T06:23:58.340Z,94610.53
2018-06-04T06:27:03.949Z,94601.80
2018-06-04T06:30:08.688Z,94606.41
2018-06-04T06:33:13.080Z,94604.19
2018-06-04T06:36:17.424Z,94611.13
2018-06-04T06:39:21.830Z,94606.36
2018-06-04T06:42:26.387Z,94604.92
2018-06-04T06:45:31.411Z,94602.91
2018-06-04T06:48:35.760Z,94606.52
2018-06-04T06:51:40.199Z,94602.48
2018-06-04T06:54:44.760Z,94601.84
2018-06-04T06:57:49.146Z,94598.34
2018-06-04T07:00:53.871Z,94602.17
2018-06-04T07:03:58.276Z,94597.13
2018-06-04T07:07:02.809Z,94594.06
2018-06-04T07:10:07.520Z,94598.33
2018-06-04T07:13:12.010Z,94592.02
2018-06-04T07:16:16.379Z,94594.47
2018-06-04T07:19:20.656Z,94597.79
2018-06-04T07:22:25.015Z,94596.39
2018-06-04T07:25:29.825Z,94596.91
2018-06-04T07:28:34.159Z,94599.52
2018-06-04T07:31:38.427Z,94593.62
2018-06-04T07:34:42.795Z,94590.56
2018-06-04T07:37:47.168Z,94594.59
2018-06-04T07:40:51.605Z,94591.86
2018-06-04T07:43:55.954Z,94590.08
2018-06-04T07:47:00.378Z,94588.14
2018-06-04T07:50:04.729Z,94590.21
2018-06-04T07:53:09.170Z,94588.61
2018-06-04T07:56:13.461Z,94587.73
2018-06-04T07:59:17.757Z,94583.39
2018-06-04T08:02:22.329Z,94581.82
2018-06-04T08:05:26.743Z,94581.00
2018-06-04T08:08:31.236Z,94578.92
2018-06-04T08:11:35.517Z,94584.01
2018-06-04T08:14:39.886Z,94587.27
2018-06-04T08:17:43.957Z,94580.02
2018-06-04T08:20:48.258Z,94577.56
2018-06-04T08:23:52.645Z,94579.31
2018-06-04T08:26:57.382Z,94580.05
2018-06-04T08:30:01.643Z,94576.92
2018-06-04T08:33:06.271Z,94576.44
2018-06-04T08:36:10.610Z,94580.31
2018-06-04T08:39:14.870Z,94581.71
2018-06-04T08:42:19.142Z,94583.53
2018-06-04T08:45:25.095Z,94583.84
2018-06-04T08:48:29.734Z,94578.38
2018-06-04T08:51:34.137Z,94572.08
2018-06-04T08:54:38.470Z,94570.81
2018-06-04T08:57:43.641Z,94572.13
2018-06-04T09:00:48.337Z,94578.54
2018-06-04T09:03:53.104Z,94571.72
2018-06-04T09:06:59.132Z,94568.80
2018-06-04T09:10:03.531Z,94564.13
2018-06-04T09:13:07.870Z,94560.20
2018-06-04T09:16:12.422Z,94557.37
2018-06-04T09:19:16.947Z,94550.04
2018-06-04T09:22:21.390Z,94552.25
2018-06-04T09:25:26.070Z,94546.67
2018-06-04T09:28:31.196Z,94546.19
2018-06-04T09:39:15.060Z,94541.77
2018-06-04T09:42:19.369Z,94535.28
2018-06-04T09:45:24.045Z,94528.41
2018-06-04T09:48:28.883Z,94529.84
2018-06-04T09:51:33.515Z,94535.97
2018-06-04T09:54:38.023Z,94533.25
2018-06-04T09:57:43.451Z,94536.48
2018-06-04T10:00:47.866Z,94535.25
2018-06-04T10:03:52.821Z,94533.78
2018-06-04T10:07:29.483Z,94520.52
2018-06-04T10:10:36.139Z,94514.79
2018-06-04T10:13:41.459Z,94519.16
2018-06-04T10:16:45.933Z,94513.98
2018-06-04T10:19:50.577Z,94504.31
2018-06-04T10:23:31.701Z,94503.58
2018-06-04T10:27:09.149Z,94508.73
2018-06-04T10:30:14.529Z,94501.17
2018-06-04T10:33:18.813Z,94497.05
2018-06-04T10:36:23.250Z,94499.53
2018-06-04T10:39:27.538Z,94491.64
2018-06-04T10:42:32.489Z,94493.66
2018-06-04T10:45:36.785Z,94486.50
2018-06-04T10:48:41.179Z,94494.17
2018-06-04T10:51:45.866Z,94492.69
2018-06-04T10:54:50.127Z,94493.66
2018-06-04T10:57:54.436Z,94483.37
2018-06-04T11:00:58.696Z,94485.31
2018-06-04T11:04:02.990Z,94483.19
2018-06-04T11:07:07.528Z,94482.23
2018-06-04T11:10:11.799Z,94467.97
2018-06-04T11:13:16.430Z,94464.03
2018-06-04T11:16:21.023Z,94467.08
2018-06-04T11:19:25.821Z,94459.45
2018-06-04T11:22:30.194Z,94453.08
2018-06-04T11:25:35.650Z,94449.73
2018-06-04T11:28:39.899Z,94450.38
2018-06-04T11:31:44.547Z,94442.87
2018-06-04T11:34:48.549Z,94445.55
2018-06-04T11:37:52.850Z,94436.87
2018-06-04T11:40:57.112Z,94435.36
2018-06-04T11:44:01.861Z,94423.17
2018-06-04T11:47:06.536Z,94420.87
2018-06-04T11:50:11.190Z,94425.94
2018-06-04T11:53:15.375Z,94416.61
2018-06-04T11:56:19.874Z,94415.62
2018-06-04T11:59:24.197Z,94419.45
2018-06-04T12:02:28.608Z,94413.25
2018-06-04T12:05:33.179Z,94406.44
2018-06-04T12:08:37.453Z,94404.84
2018-06-04T12:11:42.086Z,94394.84
2018-06-04T12:14:46.433Z,94390.76
2018-06-04T12:17:50.793Z,94394.92
2018-06-04T12:20:55.118Z,94395.45
2018-06-04T12:23:59.566Z,94383.59
2018-06-04T12:27:03.973Z,94382.73
2018-06-04T12:30:08.312Z,94373.50
2018-06-04T12:33:12.611Z,94366.38
2018-06-04T12:36:17.058Z,94360.72
2018-06-04T12:39:21.385Z,94354.44
2018-06-04T12:42:25.934Z,94353.23
2018-06-04T12:45:30.326Z,94352.83
2018-06-04T12:48:34.605Z,94342.97
2018-06-04T12:51:38.982Z,94346.27
2018-06-04T12:54:43.281Z,94340.69
2018-06-04T12:57:47.610Z,94346.49
2018-06-04T13:00:51.934Z,94337.45
2018-06-04T13:03:56.266Z,94334.63
2018-06-04T13:07:00.534Z,94330.42
2018-06-04T13:10:04.882Z,94329.95
2018-06-04T13:13:10.329Z,94329.71
2018-06-04T13:16:14.645Z,94326.73
2018-06-04T13:19:19.428Z,94320.29
2018-06-04T13:22:23.916Z,94313.95
2018-06-04T13:25:28.626Z,94319.47
2018-06-04T13:28:33.203Z,94315.84
2018-06-04T13:31:37.602Z,94303.98
2018-06-04T13:34:42.271Z,94303.34
2018-06-04T13:37:46.891Z,94302.53
2018-06-04T13:40:51.325Z,94297.81
2018-06-04T13:43:58.025Z,94300.53
2018-06-04T13:47:03.754Z,94300.41
2018-06-04T13:50:08.503Z,94292.45
2018-06-04T13:53:39.438Z,94285.67
2018-06-04T13:56:43.850Z,94289.03
2018-06-04T13:59:48.729Z,94284.34
2018-06-04T14:02:53.291Z,94289.35
2018-06-04T14:05:57.602Z,94284.69
2018-06-04T14:09:01.962Z,94272.58
2018-06-04T14:12:08.686Z,94262.45
2018-06-04T14:15:13.085Z,94264.25
2018-06-04T14:18:18.102Z,94253.05
2018-06-04T14:21:22.406Z,94255.61
2018-06-04T14:24:26.761Z,94252.44
2018-06-04T14:27:31.181Z,94252.13
2018-06-04T14:30:35.952Z,94246.84
2018-06-04T14:33:40.828Z,94250.16
2018-06-04T14:36:45.388Z,94256.49
2018-06-04T14:39:49.995Z,94249.08
2018-06-04T14:42:55.189Z,94248.19
2018-06-04T14:46:00.573Z,94251.65
2018-06-04T14:49:05.338Z,94249.34
2018-06-04T14:52:10.027Z,94244.49
2018-06-04T14:55:14.706Z,94245.85
2018-06-04T14:58:19.078Z,94240.28
2018-06-04T15:01:23.389Z,94246.02
2018-06-04T15:04:27.901Z,94236.16
2018-06-04T15:07:32.481Z,94233.59
2018-06-04T15:10:37.354Z,94233.47
2018-06-04T15:13:42.021Z,94231.50
2018-06-04T15:16:46.507Z,94233.48
2018-06-04T15:19:51.448Z,94228.33
2018-06-04T15:22:56.037Z,94232.70
2018-06-04T15:26:00.706Z,94243.00
2018-06-04T15:29:05.523Z,94239.33
2018-06-04T15:32:10.679Z,94245.70
2018-06-04T15:35:15.307Z,94242.69
2018-06-04T15:38:19.888Z,94240.41
2018-06-04T15:41:24.463Z,94237.37
2018-06-04T15:44:28.853Z,94233.31
2018-06-04T15:47:33.318Z,94228.61
2018-06-04T15:50:38.465Z,94224.69
2018-06-04T15:53:43.187Z,94220.00
2018-06-04T15:56:48.975Z,94232.41
2018-06-04T15:59:53.621Z,94225.58
2018-06-04T16:02:58.042Z,94226.81
2018-06-04T16:06:02.368Z,94218.92
2018-06-04T16:09:08.385Z,94209.70
2018-06-04T16:12:12.745Z,94216.53
2018-06-04T16:15:17.269Z,94225.90
2018-06-04T16:18:21.624Z,94219.66
2018-06-04T16:21:27.488Z,94225.68
2018-06-04T16:24:31.781Z,94226.59
2018-06-04T16:27:36.312Z,94218.71
2018-06-04T16:30:40.642Z,94220.73
2018-06-04T16:33:45.066Z,94216.65
2018-06-04T16:36:49.481Z,94215.28
2018-06-04T16:39:53.925Z,94210.44
2018-06-04T16:42:58.726Z,94215.48
2018-06-04T16:46:03.158Z,94219.82
2018-06-04T16:49:07.617Z,94216.01
2018-06-04T16:52:12.024Z,94206.89
2018-06-04T16:55:16.456Z,94206.16
2018-06-04T16:58:20.869Z,94210.94
2018-06-04T17:01:25.293Z,94208.33
2018-06-04T17:04:29.737Z,94207.15
2018-06-04T17:07:34.202Z,94206.59
2018-06-04T17:10:38.538Z,94214.41
2018-06-04T17:13:43.166Z,94212.41
2018-06-04T17:16:47.560Z,94204.65
2018-06-04T17:19:52.001Z,94210.15
2018-06-04T17:22:56.240Z,94209.91
2018-06-04T17:26:00.566Z,94211.71
2018-06-04T17:29:04.884Z,94212.95
2018-06-04T17:32:09.209Z,94222.33
2018-06-04T17:35:14.774Z,94208.15
2018-06-04T17:38:19.226Z,94213.10
2018-06-04T17:41:23.627Z,94217.23
2018-06-04T17:44:28.030Z,94219.88
2018-06-04T17:47:32.608Z,94224.13
2018-06-04T17:50:37.660Z,94225.42
2018-06-04T17:53:42.125Z,94220.56
2018-06-04T17:56:46.473Z,94217.63
2018-06-04T17:59:51.114Z,94221.36
2018-06-04T18:02:56.290Z,94227.80
2018-06-04T18:06:00.797Z,94226.69
2018-06-04T18:09:08.743Z,94218.27
2018-06-04T18:12:13.243Z,94218.67
2018-06-04T18:15:18.012Z,94218.73
2018-06-04T18:18:22.569Z,94223.75
2018-06-04T18:21:28.146Z,94223.95
2018-06-04T18:24:33.677Z,94231.05
2018-06-04T18:27:38.163Z,94230.92
2018-06-04T18:30:43.546Z,94237.56
2018-06-04T18:33:48.355Z,94239.97
2018-06-04T18:36:52.814Z,94234.09
2018-06-04T18:39:57.197Z,94240.28
2018-06-04T18:43:01.701Z,94236.52
2018-06-04T18:46:06.193Z,94242.33
2018-06-04T18:49:10.808Z,94239.77
2018-06-04T18:52:15.741Z,94239.30
2018-06-04T18:55:20.180Z,94245.45
2018-06-04T18:58:25.315Z,94244.80
2018-06-04T19:01:31.717Z,94246.17
2018-06-04T19:04:36.175Z,94248.64
2018-06-04T19:07:40.613Z,94256.19
2018-06-04T19:10:45.241Z,94251.05
2018-06-04T19:13:49.693Z,94256.73
2018-06-04T19:16:54.573Z,94253.44
2018-06-04T19:19:59.761Z,94252.42
2018-06-04T19:23:04.219Z,94262.37
2018-06-04T19:26:08.663Z,94262.43
2018-06-04T19:29:13.104Z,94269.18
2018-06-04T19:32:18.176Z,94277.72
2018-06-04T19:35:22.660Z,94278.70
2018-06-04T19:38:28.081Z,94281.70
2018-06-04T19:41:32.509Z,94284.29
2018-06-04T19:44:36.879Z,94290.80
2018-06-04T19:47:41.590Z,94297.07
2018-06-04T19:50:52.679Z,94300.37
2018-06-04T19:53:56.971Z,94304.22
2018-06-04T19:57:01.327Z,94305.09
2018-06-04T20:00:06.543Z,94305.80
2018-06-04T20:03:12.730Z,94306.77
2018-06-04T20:06:17.678Z,94313.81
2018-06-04T20:09:22.792Z,94321.94
2018-06-04T20:12:27.381Z,94314.65
2018-06-04T20:15:31.768Z,94323.80
2018-06-04T20:18:45.019Z,94319.80
2018-06-04T20:21:50.763Z,94331.69
2018-06-04T20:25:03.143Z,94334.67
2018-06-04T20:28:07.913Z,94333.60
2018-06-04T20:31:12.358Z,94335.79
2018-06-04T20:34:16.677Z,94333.44
2018-06-04T20:37:21.130Z,94336.99
2018-06-04T20:40:26.075Z,94341.72
2018-06-04T20:43:30.542Z,94339.30
2018-06-04T20:46:35.108Z,94348.23
2018-06-04T20:49:39.504Z,94355.00
2018-06-04T20:52:44.283Z,94348.34
2018-06-04T20:55:48.508Z,94350.36
2018-06-04T20:58:52.938Z,94348.80
2018-06-04T21:01:57.283Z,94350.64
2018-06-04T21:05:03.254Z,94340.52
2018-06-04T21:08:07.874Z,94349.34
2018-06-04T21:11:12.181Z,94356.31
2018-06-04T21:14:16.881Z,94356.02
2018-06-04T21:17:21.338Z,94355.89
2018-06-04T21:20:25.836Z,94361.84
2018-06-04T21:23:30.231Z,94359.93
2018-06-04T21:26:34.826Z,94361.58
2018-06-04T21:29:39.205Z,94361.30
2018-06-04T21:32:43.495Z,94361.45
2018-06-04T21:35:48.752Z,94355.49
2018-06-04T21:38:53.038Z,94352.26
2018-06-04T21:41:57.855Z,94348.17
2018-06-04T21:45:04.655Z,94358.55
2018-06-04T21:48:09.786Z,94353.18
2018-06-04T21:51:14.060Z,94360.77
2018-06-04T21:54:18.374Z,94352.51
2018-06-04T21:57:22.682Z,94348.27
2018-06-04T22:00:27.046Z,94353.70
2018-06-04T22:03:31.484Z,94350.38
2018-06-04T22:06:35.786Z,94354.84
2018-06-04T22:09:40.106Z,94351.78
2018-06-04T22:12:44.390Z,94356.34
2018-06-04T22:15:48.624Z,94358.47
2018-06-04T22:18:53.366Z,94361.67
2018-06-04T22:21:57.774Z,94366.41
2018-06-04T22:25:02.418Z,94360.11
2018-06-04T22:28:06.685Z,94360.48
2018-06-04T22:31:11.175Z,94357.39
2018-06-04T22:34:15.499Z,94361.98
2018-06-04T22:37:19.780Z,94362.22
2018-06-04T22:40:24.050Z,94363.08
2018-06-04T22:43:28.370Z,94361.55
2018-06-04T22:46:32.786Z,94353.73
2018-06-04T22:49:37.129Z,94353.10
2018-06-04T22:52:41.498Z,94348.55
2018-06-04T22:55:45.771Z,94346.38
2018-06-04T22:58:50.067Z,94356.75
2018-06-04T23:01:54.454Z,94349.45
2018-06-04T23:04:58.749Z,94353.45
2018-06-04T23:08:03.033Z,94348.33
2018-06-04T23:11:07.313Z,94348.33
2018-06-04T23:14:11.381Z,94347.20
2018-06-04T23:17:15.771Z,94340.70
2018-06-04T23:20:20.050Z,94349.75
2018-06-04T23:23:24.667Z,94347.27
2018-06-04T23:26:29.382Z,94351.50
2018-06-04T23:29:33.874Z,94342.88
2018-06-04T23:32:38.449Z,94343.66
2018-06-04T23:35:42.745Z,94341.73
2018-06-04T23:38:47.407Z,94340.60
2018-06-04T23:41:52.346Z,94343.10
2018-06-04T23:44:56.643Z,94347.89
2018-06-04T23:48:00.920Z,94345.98
2018-06-04T23:51:05.441Z,94342.13
2018-06-04T23:54:09.722Z,94345.39
2018-06-04T23:57:14.133Z,94339.84
